﻿<?xml version="1.0" encoding="utf-8"?><gpx creator="Garmin Desktop App" version="1.1" xsi:schemaLocation="http://www.topografix.com/GPX/1/1 http://www.topografix.com/GPX/1/1/gpx.xsd http://www.garmin.com/xmlschemas/WaypointExtension/v1 http://www8.garmin.com/xmlschemas/WaypointExtensionv1.xsd http://www.garmin.com/xmlschemas/TrackPointExtension/v1 http://www.garmin.com/xmlschemas/TrackPointExtensionv1.xsd http://www.garmin.com/xmlschemas/GpxExtensions/v3 http://www8.garmin.com/xmlschemas/GpxExtensionsv3.xsd http://www.garmin.com/xmlschemas/ActivityExtension/v1 http://www8.garmin.com/xmlschemas/ActivityExtensionv1.xsd http://www.garmin.com/xmlschemas/AdventuresExtensions/v1 http://www8.garmin.com/xmlschemas/AdventuresExtensionv1.xsd http://www.garmin.com/xmlschemas/PressureExtension/v1 http://www.garmin.com/xmlschemas/PressureExtensionv1.xsd http://www.garmin.com/xmlschemas/TripExtensions/v1 http://www.garmin.com/xmlschemas/TripExtensionsv1.xsd http://www.garmin.com/xmlschemas/TripMetaDataExtensions/v1 http://www.garmin.com/xmlschemas/TripMetaDataExtensionsv1.xsd http://www.garmin.com/xmlschemas/ViaPointTransportationModeExtensions/v1 http://www.garmin.com/xmlschemas/ViaPointTransportationModeExtensionsv1.xsd http://www.garmin.com/xmlschemas/CreationTimeExtension/v1 http://www.garmin.com/xmlschemas/CreationTimeExtensionsv1.xsd http://www.garmin.com/xmlschemas/AccelerationExtension/v1 http://www.garmin.com/xmlschemas/AccelerationExtensionv1.xsd http://www.garmin.com/xmlschemas/PowerExtension/v1 http://www.garmin.com/xmlschemas/PowerExtensionv1.xsd http://www.garmin.com/xmlschemas/VideoExtension/v1 http://www.garmin.com/xmlschemas/VideoExtensionv1.xsd" xmlns="http://www.topografix.com/GPX/1/1" xmlns:xsi="http://www.w3.org/2001/XMLSchema-instance" xmlns:wptx1="http://www.garmin.com/xmlschemas/WaypointExtension/v1" xmlns:gpxtrx="http://www.garmin.com/xmlschemas/GpxExtensions/v3" xmlns:gpxtpx="http://www.garmin.com/xmlschemas/TrackPointExtension/v1" xmlns:gpxx="http://www.garmin.com/xmlschemas/GpxExtensions/v3" xmlns:trp="http://www.garmin.com/xmlschemas/TripExtensions/v1" xmlns:adv="http://www.garmin.com/xmlschemas/AdventuresExtensions/v1" xmlns:prs="http://www.garmin.com/xmlschemas/PressureExtension/v1" xmlns:tmd="http://www.garmin.com/xmlschemas/TripMetaDataExtensions/v1" xmlns:vptm="http://www.garmin.com/xmlschemas/ViaPointTransportationModeExtensions/v1" xmlns:ctx="http://www.garmin.com/xmlschemas/CreationTimeExtension/v1" xmlns:gpxacc="http://www.garmin.com/xmlschemas/AccelerationExtension/v1" xmlns:gpxpx="http://www.garmin.com/xmlschemas/PowerExtension/v1" xmlns:vidx1="http://www.garmin.com/xmlschemas/VideoExtension/v1">

  <metadata>
    <link href="http://www.garmin.com">
      <text>Garmin International</text>
    </link>
    <time>2026-04-08T13:51:19Z</time>
    <bounds maxlat="51.405022172257304" maxlon="5.662786960601807" minlat="51.381373219192028" minlon="5.635445024818182" />
  </metadata>

  <trk>
    <name>20260426 Someren</name>
    <extensions>
      <gpxx:TrackExtension>
        <gpxx:DisplayColor>Red</gpxx:DisplayColor>
      </gpxx:TrackExtension>
    </extensions>
    <trkseg>
      <trkpt lat="51.384731763973832" lon="5.657980358228087">
        <ele>0</ele>
        <time>2026-03-09T00:00:00Z</time>
      </trkpt>
      <trkpt lat="51.384890433400869" lon="5.658025620505214">
        <ele>27</ele>
      </trkpt>
      <trkpt lat="51.385108698159456" lon="5.65901736728847">
        <ele>0</ele>
        <time>2026-03-09T00:00:29Z</time>
      </trkpt>
      <trkpt lat="51.388575788587332" lon="5.656991377472878">
        <ele>0</ele>
        <time>2026-03-09T00:02:55Z</time>
      </trkpt>
      <trkpt lat="51.393050383776426" lon="5.656311269849539">
        <ele>0</ele>
        <time>2026-03-09T00:05:53Z</time>
      </trkpt>
      <trkpt lat="51.393263284116983" lon="5.656663896515966">
        <ele>0</ele>
        <time>2026-03-09T00:06:13Z</time>
      </trkpt>
      <trkpt lat="51.393903158605099" lon="5.659430343657732">
        <ele>0</ele>
        <time>2026-03-09T00:07:22Z</time>
      </trkpt>
      <trkpt lat="51.394641017541289" lon="5.659215012565255">
        <ele>0</ele>
        <time>2026-03-09T00:07:48Z</time>
      </trkpt>
      <trkpt lat="51.394452005624771" lon="5.65813098102808">
        <ele>0</ele>
        <time>2026-03-09T00:08:16Z</time>
      </trkpt>
      <trkpt lat="51.394461980089545" lon="5.658040959388018">
        <ele>0</ele>
        <time>2026-03-09T00:08:18Z</time>
      </trkpt>
      <trkpt lat="51.394504979252815" lon="5.657991003245115">
        <ele>0</ele>
        <time>2026-03-09T00:08:21Z</time>
      </trkpt>
      <trkpt lat="51.394688040018082" lon="5.657985974103212">
        <ele>0</ele>
        <time>2026-03-09T00:08:28Z</time>
      </trkpt>
      <trkpt lat="51.39503002166748" lon="5.658112037926912">
        <ele>0</ele>
        <time>2026-03-09T00:08:42Z</time>
      </trkpt>
      <trkpt lat="51.395936021581292" lon="5.659250970929861">
        <ele>0</ele>
        <time>2026-03-09T00:09:28Z</time>
      </trkpt>
      <trkpt lat="51.396442959085107" lon="5.659468984231353">
        <ele>0</ele>
        <time>2026-03-09T00:09:49Z</time>
      </trkpt>
      <trkpt lat="51.396756023168564" lon="5.661054002121091">
        <ele>0</ele>
        <time>2026-03-09T00:10:31Z</time>
      </trkpt>
      <trkpt lat="51.397054083645344" lon="5.66101242788136">
        <ele>0</ele>
        <time>2026-03-09T00:10:49Z</time>
      </trkpt>
      <trkpt lat="51.397261619567871" lon="5.661087362095714">
        <ele>29.2734375</ele>
      </trkpt>
      <trkpt lat="51.397560769692063" lon="5.66124158911407">
        <ele>0</ele>
        <time>2026-03-09T00:12:04Z</time>
      </trkpt>
      <trkpt lat="51.397780124098063" lon="5.661316523328424">
        <ele>27.0546875</ele>
      </trkpt>
      <trkpt lat="51.398033509030938" lon="5.661320881918073">
        <ele>25.96484375</ele>
      </trkpt>
      <trkpt lat="51.398179018869996" lon="5.661364970728755">
        <ele>0</ele>
        <time>2026-03-09T00:12:35Z</time>
      </trkpt>
      <trkpt lat="51.398300305008888" lon="5.66168675199151">
        <ele>25.08984375</ele>
      </trkpt>
      <trkpt lat="51.398857366293669" lon="5.662456462159753">
        <ele>0</ele>
        <time>2026-03-09T00:13:04Z</time>
      </trkpt>
      <trkpt lat="51.39945600181818" lon="5.662786960601807">
        <ele>0</ele>
        <time>2026-03-09T00:13:30Z</time>
      </trkpt>
      <trkpt lat="51.399802677333355" lon="5.662692915648222">
        <ele>23.57421875</ele>
      </trkpt>
      <trkpt lat="51.40117596834898" lon="5.662180026993156">
        <ele>0</ele>
        <time>2026-03-09T00:14:40Z</time>
      </trkpt>
      <trkpt lat="51.402175007387996" lon="5.66167501732707">
        <ele>0</ele>
        <time>2026-03-09T00:15:22Z</time>
      </trkpt>
      <trkpt lat="51.402522018179297" lon="5.661602010950446">
        <ele>0</ele>
        <time>2026-03-09T00:15:36Z</time>
      </trkpt>
      <trkpt lat="51.402712035924196" lon="5.661664959043264">
        <ele>0</ele>
        <time>2026-03-09T00:15:44Z</time>
      </trkpt>
      <trkpt lat="51.402712035924196" lon="5.661664959043264">
        <ele>0</ele>
        <time>2026-03-09T00:15:44Z</time>
      </trkpt>
      <trkpt lat="51.403074217960238" lon="5.659171929582954">
        <ele>24.6484375</ele>
      </trkpt>
      <trkpt lat="51.403125012293458" lon="5.659005967900157">
        <ele>0</ele>
        <time>2026-03-09T00:16:52Z</time>
      </trkpt>
      <trkpt lat="51.403445033356547" lon="5.659024994820356">
        <ele>0</ele>
        <time>2026-03-09T00:17:05Z</time>
      </trkpt>
      <trkpt lat="51.403506975620985" lon="5.658961962908506">
        <ele>0</ele>
        <time>2026-03-09T00:17:08Z</time>
      </trkpt>
      <trkpt lat="51.403586268424988" lon="5.658744368702173">
        <ele>27.06640625</ele>
      </trkpt>
      <trkpt lat="51.403684001415968" lon="5.658384030684829">
        <ele>0</ele>
        <time>2026-03-09T00:17:24Z</time>
      </trkpt>
      <trkpt lat="51.403672602027655" lon="5.658225947991014">
        <ele>26.96484375</ele>
      </trkpt>
      <trkpt lat="51.403607977554202" lon="5.657992009073496">
        <ele>0</ele>
        <time>2026-03-09T00:17:34Z</time>
      </trkpt>
      <trkpt lat="51.403505466878414" lon="5.657771900296211">
        <ele>26.9140625</ele>
      </trkpt>
      <trkpt lat="51.403197012841702" lon="5.657350039109588">
        <ele>0</ele>
        <time>2026-03-09T00:17:57Z</time>
      </trkpt>
      <trkpt lat="51.403188966214657" lon="5.657095983624458">
        <ele>0</ele>
        <time>2026-03-09T00:18:04Z</time>
      </trkpt>
      <trkpt lat="51.403086790814996" lon="5.656947875395417">
        <ele>25.32421875</ele>
      </trkpt>
      <trkpt lat="51.403035996481776" lon="5.65686003305018">
        <ele>0</ele>
        <time>2026-03-09T00:18:12Z</time>
      </trkpt>
      <trkpt lat="51.403412008658051" lon="5.654672021046281">
        <ele>0</ele>
        <time>2026-03-09T00:19:09Z</time>
      </trkpt>
      <trkpt lat="51.403512004762888" lon="5.654492983594537">
        <ele>0</ele>
        <time>2026-03-09T00:19:15Z</time>
      </trkpt>
      <trkpt lat="51.403958005830646" lon="5.65415502525866">
        <ele>0</ele>
        <time>2026-03-09T00:19:35Z</time>
      </trkpt>
      <trkpt lat="51.404313985258341" lon="5.653237961232662">
        <ele>0</ele>
        <time>2026-03-09T00:20:02Z</time>
      </trkpt>
      <trkpt lat="51.404309961944818" lon="5.652992958202958">
        <ele>0</ele>
        <time>2026-03-09T00:20:08Z</time>
      </trkpt>
      <trkpt lat="51.404021037742496" lon="5.651521012187004">
        <ele>0</ele>
        <time>2026-03-09T00:20:46Z</time>
      </trkpt>
      <trkpt lat="51.404029335826635" lon="5.65126528032124">
        <ele>26.48828125</ele>
      </trkpt>
      <trkpt lat="51.404195632785559" lon="5.649781515821815">
        <ele>26.5</ele>
      </trkpt>
      <trkpt lat="51.404206026345491" lon="5.649500973522663">
        <ele>0</ele>
        <time>2026-03-09T00:21:37Z</time>
      </trkpt>
      <trkpt lat="51.40412287786603" lon="5.649433331564069">
        <ele>27.16015625</ele>
      </trkpt>
      <trkpt lat="51.403221990913153" lon="5.649323025718331">
        <ele>0</ele>
        <time>2026-03-09T00:22:17Z</time>
      </trkpt>
      <trkpt lat="51.403118977323174" lon="5.649198973551393">
        <ele>0</ele>
        <time>2026-03-09T00:22:22Z</time>
      </trkpt>
      <trkpt lat="51.403254009783268" lon="5.646353987976909">
        <ele>0</ele>
        <time>2026-03-09T00:23:33Z</time>
      </trkpt>
      <trkpt lat="51.40470583923161" lon="5.646501258015633">
        <ele>27.71484375</ele>
      </trkpt>
      <trkpt lat="51.404818994924426" lon="5.646483656018972">
        <ele>0</ele>
        <time>2026-03-09T00:24:36Z</time>
      </trkpt>
      <trkpt lat="51.404910022392869" lon="5.643148999661207">
        <ele>0</ele>
        <time>2026-03-09T00:26:00Z</time>
      </trkpt>
      <trkpt lat="51.404970875009894" lon="5.642819926142693">
        <ele>28.08984375</ele>
      </trkpt>
      <trkpt lat="51.404990991577506" lon="5.6426399666816">
        <ele>0</ele>
        <time>2026-03-09T00:26:13Z</time>
      </trkpt>
      <trkpt lat="51.404939023777843" lon="5.642149960622191">
        <ele>0</ele>
        <time>2026-03-09T00:26:25Z</time>
      </trkpt>
      <trkpt lat="51.405022172257304" lon="5.638586143031716">
        <ele>0</ele>
        <time>2026-03-09T00:27:51Z</time>
      </trkpt>
      <trkpt lat="51.404748000204563" lon="5.637906035408378">
        <ele>0</ele>
        <time>2026-03-09T00:28:14Z</time>
      </trkpt>
      <trkpt lat="51.404362013563514" lon="5.637198016047478">
        <ele>0</ele>
        <time>2026-03-09T00:28:38Z</time>
      </trkpt>
      <trkpt lat="51.404233267530799" lon="5.636625112965703">
        <ele>23</ele>
      </trkpt>
      <trkpt lat="51.404156992211938" lon="5.636453032493591">
        <ele>0</ele>
        <time>2026-03-09T00:28:58Z</time>
      </trkpt>
      <trkpt lat="51.403964040800929" lon="5.63625899143517">
        <ele>0</ele>
        <time>2026-03-09T00:29:07Z</time>
      </trkpt>
      <trkpt lat="51.403356017544866" lon="5.636050030589104">
        <ele>0</ele>
        <time>2026-03-09T00:29:32Z</time>
      </trkpt>
      <trkpt lat="51.403356017544866" lon="5.636050030589104">
        <ele>0</ele>
        <time>2026-03-09T00:29:32Z</time>
      </trkpt>
      <trkpt lat="51.402726033702493" lon="5.636148015037179">
        <ele>0</ele>
        <time>2026-03-09T00:29:57Z</time>
      </trkpt>
      <trkpt lat="51.401784997433424" lon="5.636463006958365">
        <ele>0</ele>
        <time>2026-03-09T00:30:36Z</time>
      </trkpt>
      <trkpt lat="51.401342013850808" lon="5.636455966159701">
        <ele>0</ele>
        <time>2026-03-09T00:30:54Z</time>
      </trkpt>
      <trkpt lat="51.401112014427781" lon="5.636382037773728">
        <ele>0</ele>
        <time>2026-03-09T00:31:03Z</time>
      </trkpt>
      <trkpt lat="51.40061697922647" lon="5.635838974267244">
        <ele>0</ele>
        <time>2026-03-09T00:31:27Z</time>
      </trkpt>
      <trkpt lat="51.400384968146682" lon="5.635732021182776">
        <ele>0</ele>
        <time>2026-03-09T00:31:37Z</time>
      </trkpt>
      <trkpt lat="51.399851040914655" lon="5.636371979489923">
        <ele>0</ele>
        <time>2026-03-09T00:32:03Z</time>
      </trkpt>
      <trkpt lat="51.399636967107654" lon="5.636535007506609">
        <ele>0</ele>
        <time>2026-03-09T00:32:13Z</time>
      </trkpt>
      <trkpt lat="51.39915500767529" lon="5.636753020808101">
        <ele>0</ele>
        <time>2026-03-09T00:32:33Z</time>
      </trkpt>
      <trkpt lat="51.398512031883001" lon="5.636741034686565">
        <ele>0</ele>
        <time>2026-03-09T00:32:59Z</time>
      </trkpt>
      <trkpt lat="51.398107018321753" lon="5.636505000293255">
        <ele>0</ele>
        <time>2026-03-09T00:33:16Z</time>
      </trkpt>
      <trkpt lat="51.39713304117322" lon="5.635472014546394">
        <ele>0</ele>
        <time>2026-03-09T00:34:03Z</time>
      </trkpt>
      <trkpt lat="51.3968560192734" lon="5.635445024818182">
        <ele>0</ele>
        <time>2026-03-09T00:34:14Z</time>
      </trkpt>
      <trkpt lat="51.3968560192734" lon="5.635445024818182">
        <ele>0</ele>
        <time>2026-03-09T00:34:14Z</time>
      </trkpt>
      <trkpt lat="51.396716041490436" lon="5.635480983182788">
        <ele>0</ele>
        <time>2026-03-09T00:34:19Z</time>
      </trkpt>
      <trkpt lat="51.396132996305823" lon="5.636032009497285">
        <ele>0</ele>
        <time>2026-03-09T00:34:46Z</time>
      </trkpt>
      <trkpt lat="51.395297991111875" lon="5.636457977816463">
        <ele>0</ele>
        <time>2026-03-09T00:35:21Z</time>
      </trkpt>
      <trkpt lat="51.394733972847462" lon="5.636604996398091">
        <ele>0</ele>
        <time>2026-03-09T00:35:44Z</time>
      </trkpt>
      <trkpt lat="51.394297024235129" lon="5.63686097972095">
        <ele>0</ele>
        <time>2026-03-09T00:36:03Z</time>
      </trkpt>
      <trkpt lat="51.392921973019838" lon="5.637862030416727">
        <ele>0</ele>
        <time>2026-03-09T00:37:03Z</time>
      </trkpt>
      <trkpt lat="51.391974985599518" lon="5.638207029551268">
        <ele>0</ele>
        <time>2026-03-09T00:37:42Z</time>
      </trkpt>
      <trkpt lat="51.391054820269346" lon="5.638629058375955">
        <ele>24.8046875</ele>
      </trkpt>
      <trkpt lat="51.389829972758889" lon="5.639273039996624">
        <ele>0</ele>
        <time>2026-03-09T00:39:12Z</time>
      </trkpt>
      <trkpt lat="51.389483967795968" lon="5.639321990311146">
        <ele>0</ele>
        <time>2026-03-09T00:39:26Z</time>
      </trkpt>
      <trkpt lat="51.389265032485127" lon="5.63920003362">
        <ele>0</ele>
        <time>2026-03-09T00:39:35Z</time>
      </trkpt>
      <trkpt lat="51.389265032485127" lon="5.63920003362">
        <ele>0</ele>
        <time>2026-03-09T00:39:35Z</time>
      </trkpt>
      <trkpt lat="51.389137040823698" lon="5.639158040285111">
        <ele>0</ele>
        <time>2026-03-09T00:39:41Z</time>
      </trkpt>
      <trkpt lat="51.389955030754209" lon="5.642848005518317">
        <ele>0</ele>
        <time>2026-03-09T00:41:18Z</time>
      </trkpt>
      <trkpt lat="51.389955030754209" lon="5.642848005518317">
        <ele>0</ele>
        <time>2026-03-09T00:41:18Z</time>
      </trkpt>
      <trkpt lat="51.38998101465404" lon="5.642965016886592">
        <ele>0</ele>
        <time>2026-03-09T00:41:22Z</time>
      </trkpt>
      <trkpt lat="51.389928041025996" lon="5.643298029899597">
        <ele>0</ele>
        <time>2026-03-09T00:41:30Z</time>
      </trkpt>
      <trkpt lat="51.389726959168911" lon="5.643876967951655">
        <ele>0</ele>
        <time>2026-03-09T00:41:47Z</time>
      </trkpt>
      <trkpt lat="51.389583041891456" lon="5.645577991381288">
        <ele>0</ele>
        <time>2026-03-09T00:42:30Z</time>
      </trkpt>
      <trkpt lat="51.389519004151225" lon="5.646108984947205">
        <ele>0</ele>
        <time>2026-03-09T00:42:43Z</time>
      </trkpt>
      <trkpt lat="51.389455972239375" lon="5.646304031834006">
        <ele>0</ele>
        <time>2026-03-09T00:42:49Z</time>
      </trkpt>
      <trkpt lat="51.389455972239375" lon="5.646304031834006">
        <ele>0</ele>
        <time>2026-03-09T00:42:49Z</time>
      </trkpt>
      <trkpt lat="51.389258997514844" lon="5.646609971299768">
        <ele>0</ele>
        <time>2026-03-09T00:43:00Z</time>
      </trkpt>
      <trkpt lat="51.389102088287473" lon="5.646696891635656">
        <ele>27.4296875</ele>
      </trkpt>
      <trkpt lat="51.388866975903511" lon="5.64670099876821">
        <ele>0</ele>
        <time>2026-03-09T00:43:15Z</time>
      </trkpt>
      <trkpt lat="51.387886041775346" lon="5.646746009588242">
        <ele>0</ele>
        <time>2026-03-09T00:43:55Z</time>
      </trkpt>
      <trkpt lat="51.387128988280892" lon="5.647057984024286">
        <ele>0</ele>
        <time>2026-03-09T00:44:26Z</time>
      </trkpt>
      <trkpt lat="51.387128988280892" lon="5.647057984024286">
        <ele>0</ele>
        <time>2026-03-09T00:44:26Z</time>
      </trkpt>
      <trkpt lat="51.386988004669547" lon="5.647122021764517">
        <ele>0</ele>
        <time>2026-03-09T00:44:32Z</time>
      </trkpt>
      <trkpt lat="51.386902006343007" lon="5.647059995681047">
        <ele>0</ele>
        <time>2026-03-09T00:44:36Z</time>
      </trkpt>
      <trkpt lat="51.386843333020806" lon="5.646747015416622">
        <ele>25.15625</ele>
      </trkpt>
      <trkpt lat="51.386460615321994" lon="5.645332150161266">
        <ele>28.59375</ele>
      </trkpt>
      <trkpt lat="51.386413006111979" lon="5.645271968096495">
        <ele>0</ele>
        <time>2026-03-09T00:45:24Z</time>
      </trkpt>
      <trkpt lat="51.384934103116393" lon="5.646058022975922">
        <ele>0</ele>
        <time>2026-03-09T00:46:27Z</time>
      </trkpt>
      <trkpt lat="51.384721957147121" lon="5.64619917422533">
        <ele>0</ele>
        <time>2026-03-09T00:46:39Z</time>
      </trkpt>
      <trkpt lat="51.384219964966178" lon="5.643716035410762">
        <ele>0</ele>
        <time>2026-03-09T00:47:47Z</time>
      </trkpt>
      <trkpt lat="51.384224994108081" lon="5.643630037084222">
        <ele>0</ele>
        <time>2026-03-09T00:47:49Z</time>
      </trkpt>
      <trkpt lat="51.383830960839987" lon="5.641621984541416">
        <ele>0</ele>
        <time>2026-03-09T00:48:42Z</time>
      </trkpt>
      <trkpt lat="51.383841019123793" lon="5.64154302701354">
        <ele>0</ele>
        <time>2026-03-09T00:48:44Z</time>
      </trkpt>
      <trkpt lat="51.38380279764533" lon="5.641504218801856">
        <ele>0</ele>
        <time>2026-03-09T00:48:51Z</time>
      </trkpt>
      <trkpt lat="51.382354404777288" lon="5.642086006700993">
        <ele>0</ele>
        <time>2026-03-09T00:49:53Z</time>
      </trkpt>
      <trkpt lat="51.382163045927882" lon="5.642174184322357">
        <ele>0</ele>
        <time>2026-03-09T00:50:01Z</time>
      </trkpt>
      <trkpt lat="51.382782971486449" lon="5.645820982754231">
        <ele>0</ele>
        <time>2026-03-09T00:51:47Z</time>
      </trkpt>
      <trkpt lat="51.382691022008657" lon="5.645860964432359">
        <ele>0</ele>
        <time>2026-03-09T00:51:50Z</time>
      </trkpt>
      <trkpt lat="51.382691022008657" lon="5.645860964432359">
        <ele>0</ele>
        <time>2026-03-09T00:51:50Z</time>
      </trkpt>
      <trkpt lat="51.381386965513229" lon="5.646430011838675">
        <ele>0</ele>
        <time>2026-03-09T00:52:44Z</time>
      </trkpt>
      <trkpt lat="51.381985936313868" lon="5.649863658472896">
        <ele>34.20703125</ele>
      </trkpt>
      <trkpt lat="51.382210655137897" lon="5.651578009128571">
        <ele>31.8046875</ele>
      </trkpt>
      <trkpt lat="51.382517851889133" lon="5.653511546552181">
        <ele>31.01953125</ele>
      </trkpt>
      <trkpt lat="51.382565461099148" lon="5.653912369161844">
        <ele>0</ele>
        <time>2026-03-09T00:56:02Z</time>
      </trkpt>
      <trkpt lat="51.382595133036375" lon="5.654198862612248">
        <ele>27.85546875</ele>
      </trkpt>
      <trkpt lat="51.381373219192028" lon="5.654745446518064">
        <ele>0</ele>
        <time>2026-03-09T00:56:56Z</time>
      </trkpt>
      <trkpt lat="51.381664322689176" lon="5.656414199620485">
        <ele>28.64453125</ele>
      </trkpt>
      <trkpt lat="51.381708243861794" lon="5.656869756057859">
        <ele>0</ele>
        <time>2026-03-09T00:57:55Z</time>
      </trkpt>
      <trkpt lat="51.381861045956612" lon="5.656921053305268">
        <ele>27.70703125</ele>
      </trkpt>
      <trkpt lat="51.383374063298106" lon="5.657773073762655">
        <ele>25.6171875</ele>
      </trkpt>
      <trkpt lat="51.383422594517469" lon="5.657808361575007">
        <ele>25.68359375</ele>
      </trkpt>
    </trkseg>
  </trk>

</gpx>